sensor_id;sensor_type;location;lat;lon;timestamp;temperature;humidity
1614;DHT22;800;48.824;9.346;2024-01-07T00:01:27;11.60;62.80
1614;DHT22;800;48.824;9.346;2024-01-07T00:03:52;11.60;62.90
1614;DHT22;800;48.824;9.346;2024-01-07T00:06:18;11.60;62.80
1614;DHT22;800;48.824;9.346;2024-01-07T00:08:43;11.60;62.80
1614;DHT22;800;48.824;9.346;2024-01-07T00:11:09;11.60;63.00
1614;DHT22;800;48.824;9.346;2024-01-07T00:13:35;11.60;63.40
1614;DHT22;800;48.824;9.346;2024-01-07T00:16:01;11.60;63.40
1614;DHT22;800;48.824;9.346;2024-01-07T00:18:27;11.60;63.60
1614;DHT22;800;48.824;9.346;2024-01-07T00:20:53;11.60;63.50
1614;DHT22;800;48.824;9.346;2024-01-07T00:23:18;11.60;63.40
1614;DHT22;800;48.824;9.346;2024-01-07T00:25:48;11.60;63.50
1614;DHT22;800;48.824;9.346;2024-01-07T00:28:14;11.60;63.50
1614;DHT22;800;48.824;9.346;2024-01-07T00:30:39;11.70;63.60
1614;DHT22;800;48.824;9.346;2024-01-07T00:33:05;11.70;64.10
1614;DHT22;800;48.824;9.346;2024-01-07T00:35:31;11.70;63.50
1614;DHT22;800;48.824;9.346;2024-01-07T00:37:56;11.70;63.50
1614;DHT22;800;48.824;9.346;2024-01-07T00:40:24;11.70;63.40
1614;DHT22;800;48.824;9.346;2024-01-07T00:42:50;11.70;63.70
1614;DHT22;800;48.824;9.346;2024-01-07T00:45:17;11.70;63.50
1614;DHT22;800;48.824;9.346;2024-01-07T00:47:43;11.70;63.40
1614;DHT22;800;48.824;9.346;2024-01-07T00:50:09;11.80;63.40
1614;DHT22;800;48.824;9.346;2024-01-07T00:52:34;11.80;63.40
1614;DHT22;800;48.824;9.346;2024-01-07T00:55:03;11.70;63.30
1614;DHT22;800;48.824;9.346;2024-01-07T00:57:29;11.70;63.70
1614;DHT22;800;48.824;9.346;2024-01-07T00:59:54;11.70;63.50
1614;DHT22;800;48.824;9.346;2024-01-07T01:02:20;11.70;63.60
1614;DHT22;800;48.824;9.346;2024-01-07T01:04:45;11.70;63.40
1614;DHT22;800;48.824;9.346;2024-01-07T01:07:11;11.70;63.70
1614;DHT22;800;48.824;9.346;2024-01-07T01:09:36;11.70;63.80
1614;DHT22;800;48.824;9.346;2024-01-07T01:12:02;11.70;63.70
1614;DHT22;800;48.824;9.346;2024-01-07T01:14:28;11.70;64.00
1614;DHT22;800;48.824;9.346;2024-01-07T01:16:53;11.70;63.90
1614;DHT22;800;48.824;9.346;2024-01-07T01:19:19;11.70;64.00
1614;DHT22;800;48.824;9.346;2024-01-07T01:21:44;11.70;63.90
1614;DHT22;800;48.824;9.346;2024-01-07T01:24:10;11.80;63.90
1614;DHT22;800;48.824;9.346;2024-01-07T01:26:36;11.80;63.80
1614;DHT22;800;48.824;9.346;2024-01-07T01:29:01;11.80;63.80
1614;DHT22;800;48.824;9.346;2024-01-07T01:31:27;11.70;63.90
1614;DHT22;800;48.824;9.346;2024-01-07T01:33:52;11.70;63.90
1614;DHT22;800;48.824;9.346;2024-01-07T01:36:18;11.70;63.90
1614;DHT22;800;48.824;9.346;2024-01-07T01:38:43;11.70;63.80
1614;DHT22;800;48.824;9.346;2024-01-07T01:41:09;11.80;63.90
1614;DHT22;800;48.824;9.346;2024-01-07T01:43:34;11.80;63.80
1614;DHT22;800;48.824;9.346;2024-01-07T01:46:01;11.80;64.30
1614;DHT22;800;48.824;9.346;2024-01-07T01:48:27;11.80;63.50
1614;DHT22;800;48.824;9.346;2024-01-07T01:50:54;11.80;63.50
1614;DHT22;800;48.824;9.346;2024-01-07T01:53:24;11.80;63.50
1614;DHT22;800;48.824;9.346;2024-01-07T01:55:49;11.80;63.40
1614;DHT22;800;48.824;9.346;2024-01-07T01:58:16;11.80;63.60
1614;DHT22;800;48.824;9.346;2024-01-07T02:00:44;11.80;63.70
1614;DHT22;800;48.824;9.346;2024-01-07T02:03:09;11.80;63.50
1614;DHT22;800;48.824;9.346;2024-01-07T02:05:35;11.80;63.50
1614;DHT22;800;48.824;9.346;2024-01-07T02:08:01;11.80;63.50
1614;DHT22;800;48.824;9.346;2024-01-07T02:10:26;11.80;63.40
1614;DHT22;800;48.824;9.346;2024-01-07T02:12:54;11.80;63.40
1614;DHT22;800;48.824;9.346;2024-01-07T02:15:19;11.80;63.50
1614;DHT22;800;48.824;9.346;2024-01-07T02:17:45;11.80;63.50
1614;DHT22;800;48.824;9.346;2024-01-07T02:20:11;11.90;63.40
1614;DHT22;800;48.824;9.346;2024-01-07T02:22:36;11.90;63.30
1614;DHT22;800;48.824;9.346;2024-01-07T02:25:02;11.80;63.20
1614;DHT22;800;48.824;9.346;2024-01-07T02:27:28;11.90;63.30
1614;DHT22;800;48.824;9.346;2024-01-07T02:29:54;11.90;63.30
1614;DHT22;800;48.824;9.346;2024-01-07T02:32:19;11.90;63.40
1614;DHT22;800;48.824;9.346;2024-01-07T02:34:45;11.90;63.20
1614;DHT22;800;48.824;9.346;2024-01-07T02:37:12;11.90;63.30
1614;DHT22;800;48.824;9.346;2024-01-07T02:39:37;11.90;63.30
1614;DHT22;800;48.824;9.346;2024-01-07T02:42:03;11.90;63.40
1614;DHT22;800;48.824;9.346;2024-01-07T02:44:29;11.80;63.10
1614;DHT22;800;48.824;9.346;2024-01-07T02:46:55;11.80;63.20
1614;DHT22;800;48.824;9.346;2024-01-07T02:49:20;11.80;63.20
1614;DHT22;800;48.824;9.346;2024-01-07T02:51:46;11.80;63.10
1614;DHT22;800;48.824;9.346;2024-01-07T02:54:15;11.80;63.20
1614;DHT22;800;48.824;9.346;2024-01-07T02:56:40;11.80;63.20
1614;DHT22;800;48.824;9.346;2024-01-07T02:59:06;11.70;62.90
1614;DHT22;800;48.824;9.346;2024-01-07T03:01:32;11.80;62.90
1614;DHT22;800;48.824;9.346;2024-01-07T03:04:06;11.70;62.70
1614;DHT22;800;48.824;9.346;2024-01-07T03:06:32;11.70;62.80
1614;DHT22;800;48.824;9.346;2024-01-07T03:08:57;11.70;63.00
1614;DHT22;800;48.824;9.346;2024-01-07T03:11:23;11.70;62.70
1614;DHT22;800;48.824;9.346;2024-01-07T03:13:48;11.70;62.60
1614;DHT22;800;48.824;9.346;2024-01-07T03:16:24;11.70;62.50
1614;DHT22;800;48.824;9.346;2024-01-07T03:18:50;11.80;62.50
1614;DHT22;800;48.824;9.346;2024-01-07T03:21:20;11.70;62.50
1614;DHT22;800;48.824;9.346;2024-01-07T03:23:46;11.70;62.50
1614;DHT22;800;48.824;9.346;2024-01-07T03:26:13;11.70;62.40
1614;DHT22;800;48.824;9.346;2024-01-07T03:28:38;11.70;62.10
1614;DHT22;800;48.824;9.346;2024-01-07T03:31:15;11.70;62.20
1614;DHT22;800;48.824;9.346;2024-01-07T03:33:42;11.60;62.10
1614;DHT22;800;48.824;9.346;2024-01-07T03:36:12;11.60;62.20
1614;DHT22;800;48.824;9.346;2024-01-07T03:38:38;11.60;62.00
1614;DHT22;800;48.824;9.346;2024-01-07T03:41:04;11.60;61.80
1614;DHT22;800;48.824;9.346;2024-01-07T03:43:30;11.60;61.60
1614;DHT22;800;48.824;9.346;2024-01-07T03:45:56;11.60;61.30
1614;DHT22;800;48.824;9.346;2024-01-07T03:48:22;11.60;60.90
1614;DHT22;800;48.824;9.346;2024-01-07T03:50:47;11.60;61.10
1614;DHT22;800;48.824;9.346;2024-01-07T03:53:15;11.60;60.90
1614;DHT22;800;48.824;9.346;2024-01-07T03:55:40;11.60;61.00
1614;DHT22;800;48.824;9.346;2024-01-07T03:58:06;11.60;60.70
1614;DHT22;800;48.824;9.346;2024-01-07T04:00:32;11.40;60.50
1614;DHT22;800;48.824;9.346;2024-01-07T04:02:57;11.40;61.00
1614;DHT22;800;48.824;9.346;2024-01-07T04:05:23;11.50;61.20
1614;DHT22;800;48.824;9.346;2024-01-07T04:07:49;11.50;61.10
1614;DHT22;800;48.824;9.346;2024-01-07T04:10:16;11.50;61.10
1614;DHT22;800;48.824;9.346;2024-01-07T04:12:42;11.50;60.80
1614;DHT22;800;48.824;9.346;2024-01-07T04:15:08;11.50;60.80
1614;DHT22;800;48.824;9.346;2024-01-07T04:17:34;11.50;60.70
1614;DHT22;800;48.824;9.346;2024-01-07T04:19:59;11.40;60.70
1614;DHT22;800;48.824;9.346;2024-01-07T04:22:25;11.40;60.80
1614;DHT22;800;48.824;9.346;2024-01-07T04:24:50;11.40;60.50
1614;DHT22;800;48.824;9.346;2024-01-07T04:27:16;11.40;60.40
1614;DHT22;800;48.824;9.346;2024-01-07T04:29:41;11.50;60.30
1614;DHT22;800;48.824;9.346;2024-01-07T04:32:07;11.40;60.00
1614;DHT22;800;48.824;9.346;2024-01-07T04:34:32;11.40;60.20
1614;DHT22;800;48.824;9.346;2024-01-07T04:36:58;11.50;60.30
1614;DHT22;800;48.824;9.346;2024-01-07T04:39:23;11.50;60.50
1614;DHT22;800;48.824;9.346;2024-01-07T04:41:49;11.40;60.40
1614;DHT22;800;48.824;9.346;2024-01-07T04:44:14;11.50;60.60
1614;DHT22;800;48.824;9.346;2024-01-07T04:46:40;11.40;60.40
1614;DHT22;800;48.824;9.346;2024-01-07T04:49:06;11.40;60.40
1614;DHT22;800;48.824;9.346;2024-01-07T04:51:32;11.50;60.30
1614;DHT22;800;48.824;9.346;2024-01-07T04:53:58;11.50;60.30
1614;DHT22;800;48.824;9.346;2024-01-07T04:56:24;11.50;60.20
1614;DHT22;800;48.824;9.346;2024-01-07T04:58:49;11.50;60.10
1614;DHT22;800;48.824;9.346;2024-01-07T05:01:15;11.50;60.20
1614;DHT22;800;48.824;9.346;2024-01-07T05:03:40;11.50;60.40
1614;DHT22;800;48.824;9.346;2024-01-07T05:06:09;11.50;60.40
1614;DHT22;800;48.824;9.346;2024-01-07T05:08:36;11.50;60.40
1614;DHT22;800;48.824;9.346;2024-01-07T05:11:03;11.50;60.50
1614;DHT22;800;48.824;9.346;2024-01-07T05:13:28;11.50;60.60
1614;DHT22;800;48.824;9.346;2024-01-07T05:15:54;11.50;60.60
1614;DHT22;800;48.824;9.346;2024-01-07T05:18:25;11.50;60.70
1614;DHT22;800;48.824;9.346;2024-01-07T05:20:51;11.50;61.10
1614;DHT22;800;48.824;9.346;2024-01-07T05:23:17;11.40;60.90
1614;DHT22;800;48.824;9.346;2024-01-07T05:25:43;11.40;61.00
1614;DHT22;800;48.824;9.346;2024-01-07T05:28:10;11.40;61.00
1614;DHT22;800;48.824;9.346;2024-01-07T05:30:36;11.40;60.80
1614;DHT22;800;48.824;9.346;2024-01-07T05:33:02;11.40;60.90
1614;DHT22;800;48.824;9.346;2024-01-07T05:35:27;11.40;61.00
1614;DHT22;800;48.824;9.346;2024-01-07T05:37:53;11.40;61.20
1614;DHT22;800;48.824;9.346;2024-01-07T05:40:18;11.40;61.10
1614;DHT22;800;48.824;9.346;2024-01-07T05:42:44;11.40;61.20
1614;DHT22;800;48.824;9.346;2024-01-07T05:45:10;11.50;61.20
1614;DHT22;800;48.824;9.346;2024-01-07T05:47:35;11.40;61.20
1614;DHT22;800;48.824;9.346;2024-01-07T05:50:01;11.50;61.30
1614;DHT22;800;48.824;9.346;2024-01-07T05:52:27;11.50;61.40
1614;DHT22;800;48.824;9.346;2024-01-07T05:54:53;11.50;61.60
1614;DHT22;800;48.824;9.346;2024-01-07T05:57:18;11.40;61.80
1614;DHT22;800;48.824;9.346;2024-01-07T05:59:45;11.40;61.90
1614;DHT22;800;48.824;9.346;2024-01-07T06:02:11;11.40;61.90
1614;DHT22;800;48.824;9.346;2024-01-07T06:04:38;11.40;61.90
1614;DHT22;800;48.824;9.346;2024-01-07T06:07:04;11.40;61.90
1614;DHT22;800;48.824;9.346;2024-01-07T06:09:30;11.40;62.00
1614;DHT22;800;48.824;9.346;2024-01-07T06:11:55;11.30;61.90
1614;DHT22;800;48.824;9.346;2024-01-07T06:14:22;11.30;62.00
1614;DHT22;800;48.824;9.346;2024-01-07T06:16:48;11.40;61.80
1614;DHT22;800;48.824;9.346;2024-01-07T06:19:13;11.30;61.30
1614;DHT22;800;48.824;9.346;2024-01-07T06:21:40;11.20;61.20
1614;DHT22;800;48.824;9.346;2024-01-07T06:24:07;11.20;61.60
1614;DHT22;800;48.824;9.346;2024-01-07T06:26:33;11.30;61.70
1614;DHT22;800;48.824;9.346;2024-01-07T06:28:59;11.50;61.70
1614;DHT22;800;48.824;9.346;2024-01-07T06:31:25;11.70;61.20
1614;DHT22;800;48.824;9.346;2024-01-07T06:33:50;11.70;60.20
1614;DHT22;800;48.824;9.346;2024-01-07T06:36:16;11.80;60.20
1614;DHT22;800;48.824;9.346;2024-01-07T06:38:42;11.90;60.20
1614;DHT22;800;48.824;9.346;2024-01-07T06:41:07;12.00;60.00
1614;DHT22;800;48.824;9.346;2024-01-07T06:43:35;12.20;59.40
1614;DHT22;800;48.824;9.346;2024-01-07T06:46:00;12.30;59.00
1614;DHT22;800;48.824;9.346;2024-01-07T06:48:26;12.50;58.50
1614;DHT22;800;48.824;9.346;2024-01-07T06:50:51;12.50;57.90
1614;DHT22;800;48.824;9.346;2024-01-07T06:53:17;12.40;57.70
1614;DHT22;800;48.824;9.346;2024-01-07T06:55:42;12.40;57.60
1614;DHT22;800;48.824;9.346;2024-01-07T06:58:08;12.40;57.60
1614;DHT22;800;48.824;9.346;2024-01-07T07:00:33;12.20;57.00
1614;DHT22;800;48.824;9.346;2024-01-07T07:02:59;12.10;57.70
1614;DHT22;800;48.824;9.346;2024-01-07T07:05:24;12.00;57.70
1614;DHT22;800;48.824;9.346;2024-01-07T07:07:50;11.90;57.70
1614;DHT22;800;48.824;9.346;2024-01-07T07:10:16;11.80;57.60
1614;DHT22;800;48.824;9.346;2024-01-07T07:12:41;11.70;57.60
1614;DHT22;800;48.824;9.346;2024-01-07T07:15:07;11.70;57.60
1614;DHT22;800;48.824;9.346;2024-01-07T07:17:36;11.90;57.90
1614;DHT22;800;48.824;9.346;2024-01-07T07:20:01;11.90;56.80
1614;DHT22;800;48.824;9.346;2024-01-07T07:22:27;11.70;56.30
1614;DHT22;800;48.824;9.346;2024-01-07T07:24:53;11.60;55.80
1614;DHT22;800;48.824;9.346;2024-01-07T07:27:19;11.30;56.30
1614;DHT22;800;48.824;9.346;2024-01-07T07:29:44;10.90;57.00
1614;DHT22;800;48.824;9.346;2024-01-07T07:32:10;10.80;57.60
1614;DHT22;800;48.824;9.346;2024-01-07T07:34:36;10.80;57.70
1614;DHT22;800;48.824;9.346;2024-01-07T07:37:02;10.90;58.00
1614;DHT22;800;48.824;9.346;2024-01-07T07:39:28;10.90;57.90
1614;DHT22;800;48.824;9.346;2024-01-07T07:41:53;10.90;58.00
1614;DHT22;800;48.824;9.346;2024-01-07T07:44:19;10.80;58.00
1614;DHT22;800;48.824;9.346;2024-01-07T07:46:44;10.90;58.00
1614;DHT22;800;48.824;9.346;2024-01-07T07:49:10;10.80;58.10
1614;DHT22;800;48.824;9.346;2024-01-07T07:51:36;10.90;58.30
1614;DHT22;800;48.824;9.346;2024-01-07T07:54:02;10.60;58.00
1614;DHT22;800;48.824;9.346;2024-01-07T07:56:28;10.40;58.10
1614;DHT22;800;48.824;9.346;2024-01-07T07:58:54;10.30;58.50
1614;DHT22;800;48.824;9.346;2024-01-07T08:01:20;10.00;58.00
1614;DHT22;800;48.824;9.346;2024-01-07T08:03:45;9.60;59.40
1614;DHT22;800;48.824;9.346;2024-01-07T08:06:11;9.70;59.90
1614;DHT22;800;48.824;9.346;2024-01-07T08:08:37;9.70;59.60
1614;DHT22;800;48.824;9.346;2024-01-07T08:11:02;9.40;59.80
1614;DHT22;800;48.824;9.346;2024-01-07T08:13:31;9.10;60.20
1614;DHT22;800;48.824;9.346;2024-01-07T08:15:56;9.10;60.00
1614;DHT22;800;48.824;9.346;2024-01-07T08:18:22;9.30;59.80
1614;DHT22;800;48.824;9.346;2024-01-07T08:20:47;9.20;59.10
1614;DHT22;800;48.824;9.346;2024-01-07T08:23:13;9.30;59.00
1614;DHT22;800;48.824;9.346;2024-01-07T08:25:38;9.30;59.00
1614;DHT22;800;48.824;9.346;2024-01-07T08:28:04;9.50;59.10
1614;DHT22;800;48.824;9.346;2024-01-07T08:30:30;9.70;58.80
1614;DHT22;800;48.824;9.346;2024-01-07T08:32:55;9.80;58.70
1614;DHT22;800;48.824;9.346;2024-01-07T08:35:21;9.70;58.50
1614;DHT22;800;48.824;9.346;2024-01-07T08:37:47;9.80;58.60
1614;DHT22;800;48.824;9.346;2024-01-07T08:40:13;9.80;58.40
1614;DHT22;800;48.824;9.346;2024-01-07T08:42:39;9.90;58.40
1614;DHT22;800;48.824;9.346;2024-01-07T08:45:05;10.00;57.00
1614;DHT22;800;48.824;9.346;2024-01-07T08:47:31;10.00;56.80
1614;DHT22;800;48.824;9.346;2024-01-07T08:49:57;10.10;56.90
1614;DHT22;800;48.824;9.346;2024-01-07T08:52:23;10.20;56.80
1614;DHT22;800;48.824;9.346;2024-01-07T08:54:49;10.20;56.60
1614;DHT22;800;48.824;9.346;2024-01-07T08:57:14;10.20;56.80
1614;DHT22;800;48.824;9.346;2024-01-07T08:59:40;10.30;56.90
1614;DHT22;800;48.824;9.346;2024-01-07T09:02:05;10.10;56.50
1614;DHT22;800;48.824;9.346;2024-01-07T09:04:31;9.90;57.90
1614;DHT22;800;48.824;9.346;2024-01-07T09:06:59;9.90;57.90
1614;DHT22;800;48.824;9.346;2024-01-07T09:09:24;9.80;58.10
1614;DHT22;800;48.824;9.346;2024-01-07T09:11:50;9.70;58.40
1614;DHT22;800;48.824;9.346;2024-01-07T09:14:17;9.80;58.00
1614;DHT22;800;48.824;9.346;2024-01-07T09:16:43;10.00;57.00
1614;DHT22;800;48.824;9.346;2024-01-07T09:19:08;10.00;56.80
1614;DHT22;800;48.824;9.346;2024-01-07T09:21:34;9.90;57.50
1614;DHT22;800;48.824;9.346;2024-01-07T09:23:59;9.90;57.10
1614;DHT22;800;48.824;9.346;2024-01-07T09:26:25;9.80;56.90
1614;DHT22;800;48.824;9.346;2024-01-07T09:28:50;9.70;56.90
1614;DHT22;800;48.824;9.346;2024-01-07T09:31:17;9.60;56.90
1614;DHT22;800;48.824;9.346;2024-01-07T09:33:43;9.50;57.30
1614;DHT22;800;48.824;9.346;2024-01-07T09:36:08;9.50;57.20
1614;DHT22;800;48.824;9.346;2024-01-07T09:38:34;9.60;57.00
1614;DHT22;800;48.824;9.346;2024-01-07T09:40:59;9.60;57.10
1614;DHT22;800;48.824;9.346;2024-01-07T09:43:25;9.60;57.10
1614;DHT22;800;48.824;9.346;2024-01-07T09:45:51;9.70;57.20
1614;DHT22;800;48.824;9.346;2024-01-07T09:48:18;9.80;56.90
1614;DHT22;800;48.824;9.346;2024-01-07T09:50:44;10.00;55.90
1614;DHT22;800;48.824;9.346;2024-01-07T09:53:16;9.90;56.50
1614;DHT22;800;48.824;9.346;2024-01-07T09:55:54;10.00;55.80
1614;DHT22;800;48.824;9.346;2024-01-07T09:58:22;9.70;56.70
1614;DHT22;800;48.824;9.346;2024-01-07T10:00:48;9.70;56.70
1614;DHT22;800;48.824;9.346;2024-01-07T10:03:14;9.60;56.70
1614;DHT22;800;48.824;9.346;2024-01-07T10:05:39;9.70;56.60
1614;DHT22;800;48.824;9.346;2024-01-07T10:08:05;9.70;56.50
1614;DHT22;800;48.824;9.346;2024-01-07T10:10:31;9.70;56.50
1614;DHT22;800;48.824;9.346;2024-01-07T10:12:57;9.60;56.30
1614;DHT22;800;48.824;9.346;2024-01-07T10:15:23;9.50;56.50
1614;DHT22;800;48.824;9.346;2024-01-07T10:17:49;9.60;56.70
1614;DHT22;800;48.824;9.346;2024-01-07T10:20:16;9.50;56.40
1614;DHT22;800;48.824;9.346;2024-01-07T10:22:46;9.40;56.90
1614;DHT22;800;48.824;9.346;2024-01-07T10:25:15;9.20;56.70
1614;DHT22;800;48.824;9.346;2024-01-07T10:27:41;9.20;57.30
1614;DHT22;800;48.824;9.346;2024-01-07T10:30:07;9.40;57.00
1614;DHT22;800;48.824;9.346;2024-01-07T10:32:35;9.40;56.70
1614;DHT22;800;48.824;9.346;2024-01-07T10:35:03;9.50;56.50
1614;DHT22;800;48.824;9.346;2024-01-07T10:37:30;9.40;56.20
1614;DHT22;800;48.824;9.346;2024-01-07T10:39:59;9.40;56.00
1614;DHT22;800;48.824;9.346;2024-01-07T10:42:33;9.50;56.50
1614;DHT22;800;48.824;9.346;2024-01-07T10:44:59;9.60;56.10
1614;DHT22;800;48.824;9.346;2024-01-07T10:47:31;9.20;55.70
1614;DHT22;800;48.824;9.346;2024-01-07T10:50:02;8.90;55.40
1614;DHT22;800;48.824;9.346;2024-01-07T10:52:28;8.70;56.00
1614;DHT22;800;48.824;9.346;2024-01-07T10:54:57;8.70;56.30
1614;DHT22;800;48.824;9.346;2024-01-07T10:57:45;8.80;56.20
1614;DHT22;800;48.824;9.346;2024-01-07T11:00:18;8.70;55.70
1614;DHT22;800;48.824;9.346;2024-01-07T11:03:17;8.70;56.40
1614;DHT22;800;48.824;9.346;2024-01-07T11:05:50;8.70;56.20
1614;DHT22;800;48.824;9.346;2024-01-07T11:08:34;8.60;56.70
1614;DHT22;800;48.824;9.346;2024-01-07T11:11:19;8.40;56.00
1614;DHT22;800;48.824;9.346;2024-01-07T11:13:48;8.50;56.40
1614;DHT22;800;48.824;9.346;2024-01-07T11:16:41;8.70;56.20
1614;DHT22;800;48.824;9.346;2024-01-07T11:19:07;8.90;55.80
1614;DHT22;800;48.824;9.346;2024-01-07T11:21:32;8.90;55.70
1614;DHT22;800;48.824;9.346;2024-01-07T11:23:58;8.90;55.40
1614;DHT22;800;48.824;9.346;2024-01-07T11:26:24;8.90;56.20
1614;DHT22;800;48.824;9.346;2024-01-07T11:28:54;8.50;56.00
1614;DHT22;800;48.824;9.346;2024-01-07T11:34:07;8.20;57.20
1614;DHT22;800;48.824;9.346;2024-01-07T11:36:38;8.20;57.50
1614;DHT22;800;48.824;9.346;2024-01-07T11:39:04;8.50;57.10
1614;DHT22;800;48.824;9.346;2024-01-07T11:41:34;8.70;56.20
1614;DHT22;800;48.824;9.346;2024-01-07T11:44:01;8.90;55.90
1614;DHT22;800;48.824;9.346;2024-01-07T11:46:28;8.80;56.10
1614;DHT22;800;48.824;9.346;2024-01-07T11:48:56;8.90;56.10
1614;DHT22;800;48.824;9.346;2024-01-07T11:51:31;8.70;55.50
1614;DHT22;800;48.824;9.346;2024-01-07T11:53:58;8.80;55.80
1614;DHT22;800;48.824;9.346;2024-01-07T11:56:27;8.80;56.00
1614;DHT22;800;48.824;9.346;2024-01-07T11:58:53;8.70;55.50
1614;DHT22;800;48.824;9.346;2024-01-07T12:01:19;8.80;55.40
1614;DHT22;800;48.824;9.346;2024-01-07T12:03:46;9.10;55.40
1614;DHT22;800;48.824;9.346;2024-01-07T12:06:12;9.20;55.30
1614;DHT22;800;48.824;9.346;2024-01-07T12:08:42;9.30;55.00
1614;DHT22;800;48.824;9.346;2024-01-07T12:11:09;9.30;54.80
1614;DHT22;800;48.824;9.346;2024-01-07T12:13:37;9.20;54.10
1614;DHT22;800;48.824;9.346;2024-01-07T12:16:03;8.90;54.40
1614;DHT22;800;48.824;9.346;2024-01-07T12:18:29;8.90;55.10
1614;DHT22;800;48.824;9.346;2024-01-07T12:20:56;8.80;54.90
1614;DHT22;800;48.824;9.346;2024-01-07T12:23:23;8.80;55.00
1614;DHT22;800;48.824;9.346;2024-01-07T12:25:49;8.70;54.90
1614;DHT22;800;48.824;9.346;2024-01-07T12:28:16;8.20;54.80
1614;DHT22;800;48.824;9.346;2024-01-07T12:30:43;8.20;56.00
1614;DHT22;800;48.824;9.346;2024-01-07T12:33:09;7.90;55.80
1614;DHT22;800;48.824;9.346;2024-01-07T12:35:35;7.70;56.10
1614;DHT22;800;48.824;9.346;2024-01-07T12:38:02;7.60;56.40
1614;DHT22;800;48.824;9.346;2024-01-07T12:40:27;7.70;56.50
1614;DHT22;800;48.824;9.346;2024-01-07T12:42:53;7.60;56.50
1614;DHT22;800;48.824;9.346;2024-01-07T12:45:19;7.70;56.50
1614;DHT22;800;48.824;9.346;2024-01-07T12:47:44;7.80;56.10
1614;DHT22;800;48.824;9.346;2024-01-07T12:50:11;7.90;56.10
1614;DHT22;800;48.824;9.346;2024-01-07T12:52:37;7.70;55.80
1614;DHT22;800;48.824;9.346;2024-01-07T12:55:07;7.60;56.10
1614;DHT22;800;48.824;9.346;2024-01-07T12:57:35;7.60;56.40
1614;DHT22;800;48.824;9.346;2024-01-07T13:00:05;7.70;56.60
1614;DHT22;800;48.824;9.346;2024-01-07T13:02:32;7.70;56.00
1614;DHT22;800;48.824;9.346;2024-01-07T13:04:58;7.80;55.80
1614;DHT22;800;48.824;9.346;2024-01-07T13:07:24;7.80;55.40
1614;DHT22;800;48.824;9.346;2024-01-07T13:09:49;7.90;56.00
1614;DHT22;800;48.824;9.346;2024-01-07T13:12:15;7.80;55.80
1614;DHT22;800;48.824;9.346;2024-01-07T13:14:40;7.80;55.70
1614;DHT22;800;48.824;9.346;2024-01-07T13:17:08;7.50;56.20
1614;DHT22;800;48.824;9.346;2024-01-07T13:19:33;7.10;56.40
1614;DHT22;800;48.824;9.346;2024-01-07T13:21:59;7.10;57.50
1614;DHT22;800;48.824;9.346;2024-01-07T13:24:26;7.10;57.10
1614;DHT22;800;48.824;9.346;2024-01-07T13:26:53;7.40;57.20
1614;DHT22;800;48.824;9.346;2024-01-07T13:29:19;7.70;56.40
1614;DHT22;800;48.824;9.346;2024-01-07T13:31:44;7.80;55.90
1614;DHT22;800;48.824;9.346;2024-01-07T13:34:10;7.60;55.40
1614;DHT22;800;48.824;9.346;2024-01-07T13:36:35;7.60;56.10
1614;DHT22;800;48.824;9.346;2024-01-07T13:39:01;7.50;55.70
1614;DHT22;800;48.824;9.346;2024-01-07T13:41:27;7.30;56.10
1614;DHT22;800;48.824;9.346;2024-01-07T13:43:54;7.30;56.60
1614;DHT22;800;48.824;9.346;2024-01-07T13:46:21;7.10;56.90
1614;DHT22;800;48.824;9.346;2024-01-07T13:48:48;6.90;57.00
1614;DHT22;800;48.824;9.346;2024-01-07T13:51:14;6.90;57.00
1614;DHT22;800;48.824;9.346;2024-01-07T13:53:39;6.60;57.90
1614;DHT22;800;48.824;9.346;2024-01-07T13:56:05;6.70;58.30
1614;DHT22;800;48.824;9.346;2024-01-07T13:58:32;6.70;58.20
1614;DHT22;800;48.824;9.346;2024-01-07T14:00:58;6.70;58.40
1614;DHT22;800;48.824;9.346;2024-01-07T14:03:23;7.00;58.30
1614;DHT22;800;48.824;9.346;2024-01-07T14:05:49;7.10;58.00
1614;DHT22;800;48.824;9.346;2024-01-07T14:08:16;7.00;57.40
1614;DHT22;800;48.824;9.346;2024-01-07T14:10:42;7.00;57.80
1614;DHT22;800;48.824;9.346;2024-01-07T14:13:07;7.00;57.70
1614;DHT22;800;48.824;9.346;2024-01-07T14:15:33;7.10;58.00
1614;DHT22;800;48.824;9.346;2024-01-07T14:17:58;7.10;57.70
1614;DHT22;800;48.824;9.346;2024-01-07T14:20:24;7.20;57.50
1614;DHT22;800;48.824;9.346;2024-01-07T14:22:49;7.30;57.80
1614;DHT22;800;48.824;9.346;2024-01-07T14:25:15;7.40;57.70
1614;DHT22;800;48.824;9.346;2024-01-07T14:27:42;7.40;57.60
1614;DHT22;800;48.824;9.346;2024-01-07T14:30:09;7.20;57.90
1614;DHT22;800;48.824;9.346;2024-01-07T14:32:34;7.30;58.10
1614;DHT22;800;48.824;9.346;2024-01-07T14:35:02;7.50;57.60
1614;DHT22;800;48.824;9.346;2024-01-07T14:37:27;7.70;57.30
1614;DHT22;800;48.824;9.346;2024-01-07T14:39:53;7.80;57.10
1614;DHT22;800;48.824;9.346;2024-01-07T14:42:19;7.50;56.20
1614;DHT22;800;48.824;9.346;2024-01-07T14:44:44;7.10;57.50
1614;DHT22;800;48.824;9.346;2024-01-07T14:47:10;7.10;58.60
1614;DHT22;800;48.824;9.346;2024-01-07T14:49:35;7.30;58.10
1614;DHT22;800;48.824;9.346;2024-01-07T14:52:01;7.40;58.00
1614;DHT22;800;48.824;9.346;2024-01-07T14:54:27;7.30;58.00
1614;DHT22;800;48.824;9.346;2024-01-07T14:56:52;7.40;57.90
1614;DHT22;800;48.824;9.346;2024-01-07T14:59:18;7.60;57.50
1614;DHT22;800;48.824;9.346;2024-01-07T15:01:43;7.60;57.60
1614;DHT22;800;48.824;9.346;2024-01-07T15:04:10;7.80;57.80
1614;DHT22;800;48.824;9.346;2024-01-07T15:06:41;8.00;57.40
1614;DHT22;800;48.824;9.346;2024-01-07T15:09:07;8.00;57.00
1614;DHT22;800;48.824;9.346;2024-01-07T15:11:33;7.90;56.80
1614;DHT22;800;48.824;9.346;2024-01-07T15:13:59;8.00;57.00
1614;DHT22;800;48.824;9.346;2024-01-07T15:16:25;7.90;56.80
1614;DHT22;800;48.824;9.346;2024-01-07T15:18:51;8.00;57.00
1614;DHT22;800;48.824;9.346;2024-01-07T15:21:17;8.10;56.90
1614;DHT22;800;48.824;9.346;2024-01-07T15:23:42;8.00;56.60
1614;DHT22;800;48.824;9.346;2024-01-07T15:26:08;8.00;57.00
1614;DHT22;800;48.824;9.346;2024-01-07T15:28:34;7.90;56.70
1614;DHT22;800;48.824;9.346;2024-01-07T15:30:59;7.50;57.00
1614;DHT22;800;48.824;9.346;2024-01-07T15:33:25;7.50;57.30
1614;DHT22;800;48.824;9.346;2024-01-07T15:35:51;7.20;57.70
1614;DHT22;800;48.824;9.346;2024-01-07T15:38:17;7.10;58.30
1614;DHT22;800;48.824;9.346;2024-01-07T15:40:43;6.90;58.40
1614;DHT22;800;48.824;9.346;2024-01-07T15:43:10;6.90;58.50
1614;DHT22;800;48.824;9.346;2024-01-07T15:45:37;6.90;58.70
1614;DHT22;800;48.824;9.346;2024-01-07T15:48:03;6.90;58.40
1614;DHT22;800;48.824;9.346;2024-01-07T15:50:29;6.70;58.70
1614;DHT22;800;48.824;9.346;2024-01-07T15:52:54;6.80;59.20
1614;DHT22;800;48.824;9.346;2024-01-07T15:55:22;6.70;58.60
1614;DHT22;800;48.824;9.346;2024-01-07T15:57:48;6.80;58.90
1614;DHT22;800;48.824;9.346;2024-01-07T16:00:13;7.00;58.90
1614;DHT22;800;48.824;9.346;2024-01-07T16:02:39;6.90;58.70
1614;DHT22;800;48.824;9.346;2024-01-07T16:05:05;6.80;59.30
1614;DHT22;800;48.824;9.346;2024-01-07T16:07:31;7.00;59.20
1614;DHT22;800;48.824;9.346;2024-01-07T16:09:57;7.00;58.80
1614;DHT22;800;48.824;9.346;2024-01-07T16:12:22;6.80;59.00
1614;DHT22;800;48.824;9.346;2024-01-07T16:14:48;6.80;59.30
1614;DHT22;800;48.824;9.346;2024-01-07T16:17:14;6.90;59.50
1614;DHT22;800;48.824;9.346;2024-01-07T16:19:39;6.70;59.30
1614;DHT22;800;48.824;9.346;2024-01-07T16:22:05;6.40;59.20
1614;DHT22;800;48.824;9.346;2024-01-07T16:24:38;6.30;58.90